createdAt,value
2023-04-01T00:02:54.943Z,2.90
2023-04-01T00:05:57.266Z,2.13
2023-04-01T00:08:59.268Z,2.70
2023-04-01T00:12:01.285Z,2.75
2023-04-01T00:15:03.548Z,3.00
2023-04-01T00:18:06.262Z,3.13
2023-04-01T00:21:08.767Z,3.55
2023-04-01T00:24:10.921Z,3.35
2023-04-01T00:27:13.380Z,3.90
2023-04-01T00:30:15.572Z,4.35
2023-04-01T00:33:18.333Z,3.67
2023-04-01T00:36:22.486Z,3.72
2023-04-01T00:39:24.665Z,4.03
2023-04-01T00:42:27.119Z,4.60
2023-04-01T00:45:32.648Z,4.50
2023-04-01T00:48:35.826Z,4.20
2023-04-01T00:51:39.090Z,5.18
2023-04-01T00:54:43.156Z,6.45
2023-04-01T00:57:45.436Z,5.63
2023-04-01T01:00:47.775Z,4.78
2023-04-01T01:03:49.754Z,5.00
2023-04-01T01:06:57.888Z,5.47
2023-04-01T01:10:04.126Z,4.33
2023-04-01T01:13:13.316Z,4.63
2023-04-01T01:16:28.484Z,4.45
2023-04-01T01:20:15.520Z,5.10
2023-04-01T01:23:31.170Z,6.03
2023-04-01T01:26:45.197Z,5.93
2023-04-01T01:30:06.366Z,6.18
2023-04-01T01:33:08.339Z,6.03
2023-04-01T01:36:11.517Z,6.75
2023-04-01T01:39:14.385Z,6.22
2023-04-01T01:42:17.360Z,7.00
2023-04-01T01:45:20.020Z,6.00
2023-04-01T01:48:23.031Z,6.03
2023-04-01T01:51:25.233Z,5.82
2023-04-01T01:54:27.292Z,6.25
2023-04-01T01:57:35.856Z,5.65
2023-04-01T02:00:39.901Z,5.75
2023-04-01T02:03:42.669Z,5.53
2023-04-01T02:06:49.149Z,5.80
2023-04-01T02:09:51.666Z,5.90
2023-04-01T02:12:54.957Z,5.60
2023-04-01T02:15:57.461Z,5.35
2023-04-01T02:19:00.100Z,5.30
2023-04-01T02:22:02.833Z,5.57
2023-04-01T02:25:08.886Z,4.93
2023-04-01T02:28:11.416Z,5.30
2023-04-01T02:31:14.300Z,5.93
2023-04-01T02:34:16.549Z,5.47
2023-04-01T02:37:18.619Z,5.55
2023-04-01T02:40:21.127Z,5.18
2023-04-01T02:43:23.547Z,5.33
2023-04-01T02:46:26.017Z,6.80
2023-04-01T02:49:28.421Z,8.02
2023-04-01T02:52:31.075Z,8.68
2023-04-01T02:55:36.597Z,6.28
2023-04-01T02:58:39.082Z,5.55
2023-04-01T03:01:41.355Z,5.50
2023-04-01T03:04:43.948Z,5.57
2023-04-01T03:07:45.981Z,5.53
2023-04-01T03:10:48.844Z,6.47
2023-04-01T03:13:50.854Z,6.07
2023-04-01T03:16:53.051Z,5.72
2023-04-01T03:19:55.871Z,5.63
2023-04-01T03:22:58.164Z,6.25
2023-04-01T03:26:00.533Z,6.68
2023-04-01T03:29:03.116Z,6.10
2023-04-01T03:32:05.326Z,6.38
2023-04-01T03:35:08.365Z,6.33
2023-04-01T03:38:10.977Z,6.15
2023-04-01T03:41:14.254Z,6.28
2023-04-01T03:44:16.534Z,6.20
2023-04-01T03:47:19.978Z,9.80
2023-04-01T03:50:22.421Z,9.85
2023-04-01T03:53:24.571Z,7.15
2023-04-01T03:56:30.070Z,6.78
2023-04-01T03:59:32.593Z,7.88
2023-04-01T04:02:35.669Z,6.38
2023-04-01T04:05:38.391Z,6.10
2023-04-01T04:08:40.911Z,6.05
2023-04-01T04:11:43.062Z,6.18
2023-04-01T04:14:45.434Z,8.20
2023-04-01T04:17:47.788Z,10.27
2023-04-01T04:20:52.197Z,12.65
2023-04-01T04:23:55.587Z,8.57
2023-04-01T04:26:57.602Z,6.55
2023-04-01T04:29:59.882Z,6.32
2023-04-01T04:33:02.828Z,7.00
2023-04-01T04:36:05.376Z,7.40
2023-04-01T04:39:07.438Z,7.90
2023-04-01T04:42:12.564Z,7.55
2023-04-01T04:45:15.514Z,6.80
2023-04-01T04:48:27.323Z,6.95
2023-04-01T04:51:29.357Z,6.47
2023-04-01T04:54:31.713Z,6.20
2023-04-01T04:57:35.942Z,6.22
2023-04-01T05:00:38.132Z,6.53
2023-04-01T05:03:44.882Z,6.88
2023-04-01T05:06:47.045Z,6.47
2023-04-01T05:09:50.010Z,9.23
2023-04-01T05:12:52.469Z,13.02
2023-04-01T05:15:57.419Z,11.23
2023-04-01T05:18:59.464Z,11.30
2023-04-01T05:22:01.612Z,11.30
2023-04-01T05:25:04.889Z,10.32
2023-04-01T05:28:06.955Z,9.32
2023-04-01T05:31:09.537Z,9.43
2023-04-01T05:34:16.906Z,8.45
2023-04-01T05:37:19.682Z,7.50
2023-04-01T05:40:21.948Z,8.23
2023-04-01T05:43:23.964Z,7.10
2023-04-01T05:46:26.614Z,7.93
2023-04-01T05:49:38.839Z,7.95
2023-04-01T05:52:40.936Z,7.75
2023-04-01T05:55:43.463Z,8.82
2023-04-01T05:58:46.490Z,7.30
2023-04-01T06:01:48.433Z,7.95
2023-04-01T06:04:51.504Z,6.68
2023-04-01T06:07:57.052Z,6.97
2023-04-01T06:11:01.774Z,5.35
2023-04-01T06:14:16.926Z,4.68
2023-04-01T06:17:22.046Z,4.50
2023-04-01T06:20:26.858Z,4.75
2023-04-01T06:23:34.888Z,3.30
2023-04-01T06:26:46.720Z,3.10
2023-04-01T06:29:55.748Z,2.50
2023-04-01T06:33:20.965Z,2.10
2023-04-01T06:36:42.277Z,2.20
2023-04-01T06:39:44.783Z,2.20
2023-04-01T06:42:47.080Z,2.50
2023-04-01T06:46:34.784Z,1.85
2023-04-01T06:50:04.370Z,1.80
2023-04-01T06:53:40.681Z,1.87
2023-04-01T06:57:18.235Z,1.23
2023-04-01T07:00:22.660Z,1.50
2023-04-01T07:03:33.987Z,1.40
2023-04-01T07:06:57.469Z,1.50
2023-04-01T07:10:00.860Z,1.25
2023-04-01T07:13:06.609Z,1.20
2023-04-01T07:16:30.709Z,1.30
2023-04-01T07:19:38.021Z,1.60
2023-04-01T07:22:46.897Z,1.27
2023-04-01T07:26:21.985Z,1.30
2023-04-01T07:29:40.631Z,1.15
2023-04-01T07:32:49.886Z,0.97
2023-04-01T07:35:55.324Z,0.90
2023-04-01T07:39:16.171Z,0.70
2023-04-01T07:42:36.266Z,0.75
2023-04-01T07:45:44.452Z,0.70
2023-04-01T07:49:06.528Z,0.50
2023-04-01T07:52:17.831Z,0.90
2023-04-01T07:55:26.514Z,0.68
2023-04-01T07:59:07.567Z,0.67
2023-04-01T08:02:51.531Z,0.77
2023-04-01T08:05:57.118Z,0.93
2023-04-01T08:09:09.272Z,0.85
2023-04-01T08:12:49.372Z,0.80
2023-04-01T08:16:17.290Z,0.50
2023-04-01T08:19:29.896Z,0.52
2023-04-01T08:22:43.014Z,0.50
2023-04-01T08:26:06.102Z,0.90
2023-04-01T08:29:12.793Z,1.65
2023-04-01T08:32:18.691Z,1.13
2023-04-01T08:35:28.883Z,0.80
2023-04-01T08:38:33.274Z,1.10
2023-04-01T08:41:39.534Z,0.40
2023-04-01T08:45:07.814Z,0.50
2023-04-01T08:48:10.252Z,0.40
2023-04-01T08:51:32.544Z,0.70
2023-04-01T08:54:37.683Z,0.47
2023-04-01T08:57:56.765Z,0.82
2023-04-01T09:01:14.480Z,0.57
2023-04-01T09:04:40.129Z,0.90
2023-04-01T09:07:57.325Z,0.60
2023-04-01T09:11:24.997Z,0.80
2023-04-01T09:15:05.417Z,1.77
2023-04-01T09:18:12.722Z,0.53
2023-04-01T09:21:16.092Z,1.05
2023-04-01T09:24:24.124Z,0.68
2023-04-01T09:27:45.435Z,0.80
2023-04-01T09:31:06.731Z,1.20
2023-04-01T09:34:32.794Z,1.13
2023-04-01T09:37:38.516Z,1.00
2023-04-01T09:40:58.047Z,0.80
2023-04-01T09:44:26.640Z,1.00
2023-04-01T09:48:10.130Z,0.80
2023-04-01T09:51:12.337Z,0.83
2023-04-01T09:54:14.370Z,0.60
2023-04-01T09:57:17.440Z,1.13
2023-04-01T10:00:43.110Z,0.90
2023-04-01T10:03:46.398Z,0.85
2023-04-01T10:07:07.814Z,1.00
2023-04-01T10:10:21.042Z,0.80
2023-04-01T10:13:37.460Z,0.70
2023-04-01T10:16:46.481Z,0.60
2023-04-01T10:20:08.606Z,0.60
2023-04-01T10:23:31.146Z,0.77
2023-04-01T10:26:40.022Z,0.80
2023-04-01T10:30:25.911Z,1.20
2023-04-01T10:33:49.576Z,1.00
2023-04-01T10:36:52.907Z,0.90
2023-04-01T10:40:10.003Z,0.87
2023-04-01T10:43:52.734Z,1.40
2023-04-01T10:47:13.206Z,1.42
2023-04-01T10:50:34.196Z,1.30
2023-04-01T10:53:51.023Z,1.38
2023-04-01T10:57:22.116Z,1.10
2023-04-01T11:01:01.619Z,1.05
2023-04-01T11:04:40.468Z,0.90
2023-04-01T11:08:19.277Z,1.30
2023-04-01T11:11:31.110Z,1.42
2023-04-01T11:14:39.643Z,1.00
2023-04-01T11:17:44.180Z,1.08
2023-04-01T11:21:05.088Z,1.15
2023-04-01T11:24:16.190Z,1.50
2023-04-01T11:27:45.813Z,2.00
2023-04-01T11:30:47.767Z,1.20
2023-04-01T11:33:56.366Z,1.30
2023-04-01T11:37:17.560Z,1.60
2023-04-01T11:40:58.098Z,1.20
2023-04-01T11:44:44.804Z,1.10
2023-04-01T11:47:57.635Z,1.07
2023-04-01T11:51:08.341Z,1.00
2023-04-01T11:54:49.358Z,1.00
2023-04-01T11:58:06.727Z,0.82
2023-04-01T12:01:27.957Z,0.70
2023-04-01T12:04:35.885Z,0.80
2023-04-01T12:07:54.022Z,0.80
2023-04-01T12:10:58.919Z,1.13
2023-04-01T12:14:10.783Z,0.73
2023-04-01T12:17:22.105Z,1.02
2023-04-01T12:20:28.306Z,0.80
2023-04-01T12:23:48.878Z,0.80
2023-04-01T12:27:08.885Z,1.10
2023-04-01T12:30:30.140Z,1.75
2023-04-01T12:33:38.015Z,1.10
2023-04-01T12:36:43.518Z,0.97
2023-04-01T12:39:50.831Z,1.10
2023-04-01T12:42:53.346Z,1.27
2023-04-01T12:45:56.753Z,1.08
2023-04-01T12:49:17.566Z,0.88
2023-04-01T12:52:38.710Z,0.97
2023-04-01T12:55:41.695Z,1.00
2023-04-01T12:58:48.792Z,0.85
2023-04-01T13:01:53.861Z,0.88
2023-04-01T13:05:01.527Z,0.98
2023-04-01T13:08:06.684Z,0.77
2023-04-01T13:11:19.454Z,0.68
2023-04-01T13:14:31.510Z,0.68
2023-04-01T13:17:43.154Z,0.98
2023-04-01T13:20:45.239Z,0.70
2023-04-01T13:23:51.260Z,1.40
2023-04-01T13:26:58.856Z,0.65
2023-04-01T13:30:09.373Z,1.52
2023-04-01T13:33:30.678Z,1.00
2023-04-01T13:36:41.694Z,0.90
2023-04-01T13:39:56.505Z,0.80
2023-04-01T13:42:59.621Z,0.60
2023-04-01T13:46:09.580Z,0.70
2023-04-01T13:49:23.939Z,0.70
2023-04-01T13:52:38.857Z,0.73
2023-04-01T13:55:41.581Z,0.63
2023-04-01T13:58:43.928Z,0.45
2023-04-01T14:01:55.313Z,0.77
2023-04-01T14:05:03.514Z,1.23
2023-04-01T14:08:09.481Z,0.70
2023-04-01T14:11:16.242Z,0.87
2023-04-01T14:14:31.095Z,0.57
2023-04-01T14:17:37.210Z,0.68
2023-04-01T14:20:52.770Z,0.73
2023-04-01T14:23:54.736Z,0.60
2023-04-01T14:27:15.384Z,0.67
2023-04-01T14:30:37.549Z,0.60
2023-04-01T14:33:39.574Z,0.90
2023-04-01T14:36:51.315Z,0.95
2023-04-01T14:40:12.206Z,0.70
2023-04-01T14:43:33.153Z,1.07
2023-04-01T14:46:41.243Z,0.70
2023-04-01T14:50:03.942Z,1.02
2023-04-01T14:53:08.666Z,0.82
2023-04-01T14:56:10.986Z,1.00
2023-04-01T14:59:39.644Z,0.93
2023-04-01T15:02:50.479Z,0.80
2023-04-01T15:06:11.280Z,2.40
2023-04-01T15:09:32.119Z,1.35
2023-04-01T15:12:45.591Z,1.35
2023-04-01T15:16:03.038Z,2.50
2023-04-01T15:19:23.573Z,1.92
2023-04-01T15:22:39.720Z,1.38
2023-04-01T15:25:44.929Z,0.95
2023-04-01T15:28:58.961Z,0.90
2023-04-01T15:32:01.845Z,0.77
2023-04-01T15:35:15.898Z,0.85
2023-04-01T15:38:36.968Z,1.10
2023-04-01T15:41:39.938Z,0.90
2023-04-01T15:44:46.289Z,1.00
2023-04-01T15:48:00.384Z,1.00
2023-04-01T15:51:11.707Z,1.42
2023-04-01T15:54:19.139Z,1.02
2023-04-01T15:57:53.331Z,1.02
2023-04-01T16:01:10.168Z,0.85
2023-04-01T16:04:30.810Z,0.80
2023-04-01T16:07:41.333Z,0.90
2023-04-01T16:10:46.418Z,0.93
2023-04-01T16:13:51.486Z,0.90
2023-04-01T16:17:12.585Z,0.90
2023-04-01T16:20:15.124Z,1.20
2023-04-01T16:23:22.012Z,0.95
2023-04-01T16:26:31.075Z,1.00
2023-04-01T16:29:44.962Z,0.90
2023-04-01T16:32:47.125Z,0.80
2023-04-01T16:36:21.679Z,0.90
2023-04-01T16:39:41.917Z,1.30
2023-04-01T16:42:46.481Z,1.73
2023-04-01T16:46:27.091Z,1.10
2023-04-01T16:49:33.323Z,1.00
2023-04-01T16:52:37.882Z,1.10
2023-04-01T16:55:48.215Z,1.00
2023-04-01T16:59:29.117Z,1.10
2023-04-01T17:02:51.216Z,0.98
2023-04-01T17:06:08.431Z,1.00
2023-04-01T17:09:21.581Z,1.93
2023-04-01T17:12:26.887Z,1.60
2023-04-01T17:15:29.152Z,1.55
2023-04-01T17:18:41.197Z,1.20
2023-04-01T17:21:43.238Z,1.30
2023-04-01T17:24:57.089Z,1.20
2023-04-01T17:27:59.088Z,2.28
2023-04-01T17:31:19.074Z,2.33
2023-04-01T17:34:27.267Z,2.55
2023-04-01T17:37:33.023Z,1.92
2023-04-01T17:40:37.781Z,2.20
2023-04-01T17:43:40.099Z,1.90
2023-04-01T17:47:03.521Z,1.85
2023-04-01T17:50:14.664Z,2.40
2023-04-01T17:53:28.960Z,2.45
2023-04-01T17:56:31.054Z,2.73
2023-04-01T17:59:40.292Z,2.50
2023-04-01T18:02:54.783Z,2.83
2023-04-01T18:06:16.027Z,2.50
2023-04-01T18:09:22.445Z,2.53
2023-04-01T18:12:39.929Z,2.50
2023-04-01T18:16:00.802Z,2.20
2023-04-01T18:19:04.090Z,1.73
2023-04-01T18:22:20.228Z,1.98
2023-04-01T18:25:37.873Z,2.23
2023-04-01T18:28:41.190Z,2.70
2023-04-01T18:31:45.034Z,2.58
2023-04-01T18:34:51.770Z,1.85
2023-04-01T18:38:00.424Z,1.70
2023-04-01T18:41:18.481Z,3.13
2023-04-01T18:44:32.363Z,3.10
2023-04-01T18:47:37.356Z,3.03
2023-04-01T18:50:52.724Z,2.28
2023-04-01T18:53:56.300Z,2.17
2023-04-01T18:57:03.481Z,1.70
2023-04-01T19:00:06.142Z,1.67
2023-04-01T19:03:09.030Z,1.83
2023-04-01T19:06:16.761Z,1.30
2023-04-01T19:09:19.037Z,1.80
2023-04-01T19:12:23.963Z,1.90
2023-04-01T19:15:36.109Z,2.08
2023-04-01T19:18:38.586Z,2.72
2023-04-01T19:21:44.433Z,2.05
2023-04-01T19:24:52.443Z,2.53
2023-04-01T19:27:56.862Z,2.60
2023-04-01T19:31:22.335Z,2.35
2023-04-01T19:34:31.127Z,2.10
2023-04-01T19:37:34.950Z,2.55
2023-04-01T19:40:52.007Z,2.33
2023-04-01T19:43:56.280Z,2.72
2023-04-01T19:47:04.399Z,1.73
2023-04-01T19:50:07.257Z,1.90
2023-04-01T19:53:29.424Z,2.20
2023-04-01T19:56:40.861Z,2.40
2023-04-01T19:59:45.710Z,2.13
2023-04-01T20:03:02.504Z,2.20
2023-04-01T20:06:11.633Z,1.80
2023-04-01T20:09:25.506Z,2.10
2023-04-01T20:12:27.610Z,1.60
2023-04-01T20:15:34.703Z,2.17
2023-04-01T20:18:50.516Z,2.07
2023-04-01T20:21:52.566Z,2.22
2023-04-01T20:24:54.626Z,2.10
2023-04-01T20:27:56.593Z,2.20
2023-04-01T20:31:09.226Z,2.10
2023-04-01T20:34:26.839Z,2.17
2023-04-01T20:37:29.325Z,2.88
2023-04-01T20:40:37.836Z,3.37
2023-04-01T20:44:00.594Z,5.45
2023-04-01T20:47:21.589Z,8.82
2023-04-01T20:50:29.962Z,10.57
2023-04-01T20:53:41.508Z,13.70
2023-04-01T20:56:43.587Z,13.43
2023-04-01T20:59:52.690Z,17.02
2023-04-01T21:03:04.509Z,14.43
2023-04-01T21:06:09.246Z,14.98
2023-04-01T21:09:17.658Z,12.65
2023-04-01T21:12:22.920Z,11.07
2023-04-01T21:15:34.189Z,11.63
2023-04-01T21:18:44.143Z,9.45
2023-04-01T21:21:46.483Z,9.43
2023-04-01T21:24:51.521Z,9.63
2023-04-01T21:28:12.118Z,9.97
2023-04-01T21:31:17.412Z,8.90
2023-04-01T21:34:19.426Z,8.68
2023-04-01T21:37:28.065Z,9.13
2023-04-01T21:40:39.642Z,6.68
2023-04-01T21:43:50.649Z,5.22
2023-04-01T21:47:16.394Z,6.70
2023-04-01T21:50:24.254Z,6.47
2023-04-01T21:53:45.743Z,7.85
2023-04-01T21:57:02.885Z,7.90
2023-04-01T22:00:17.356Z,10.20
2023-04-01T22:03:26.802Z,12.30
2023-04-01T22:06:32.616Z,13.95
2023-04-01T22:09:39.670Z,12.88
2023-04-01T22:12:44.495Z,14.23
2023-04-01T22:15:50.736Z,10.57
2023-04-01T22:19:05.491Z,7.50
2023-04-01T22:22:09.758Z,4.33
2023-04-01T22:25:13.346Z,2.83
2023-04-01T22:28:31.305Z,2.85
2023-04-01T22:31:36.163Z,2.70
2023-04-01T22:34:40.894Z,2.67
2023-04-01T22:37:43.059Z,2.28
2023-04-01T22:41:03.671Z,2.60
2023-04-01T22:44:05.754Z,2.35
2023-04-01T22:47:10.586Z,1.98
2023-04-01T22:50:18.885Z,1.98
2023-04-01T22:53:27.945Z,1.83
2023-04-01T22:56:38.289Z,1.75
2023-04-01T22:59:46.246Z,2.25
2023-04-01T23:03:07.440Z,2.10
2023-04-01T23:06:20.236Z,1.90
2023-04-01T23:09:23.730Z,1.88
2023-04-01T23:12:25.774Z,1.98
2023-04-01T23:15:28.181Z,1.90
2023-04-01T23:18:32.170Z,2.08
2023-04-01T23:21:45.958Z,1.92
2023-04-01T23:25:01.118Z,2.15
2023-04-01T23:28:12.253Z,2.38
2023-04-01T23:31:30.521Z,2.28
2023-04-01T23:34:33.504Z,1.88
2023-04-01T23:37:35.444Z,2.17
2023-04-01T23:40:37.900Z,2.10
2023-04-01T23:43:40.678Z,1.70
2023-04-01T23:46:43.567Z,2.00
2023-04-01T23:49:53.134Z,2.10
2023-04-01T23:52:58.626Z,1.80
2023-04-01T23:56:00.877Z,1.90
2023-04-01T23:59:02.932Z,1.83
